Winnemucca Municipal Airport
KWMC : now visible

Airfield :











YOU CAN JOIN US ON...

 
LOGIN :

Register | Disclaimer

   EN    FR    IT 

 









Legend :    VFR   Marginal VFR   IFR   Intensive IFR   Very Intensive IFR
Visi :
Ceiling :
>= 8 km
>= 3000ft
5 to 8 km
1000 to 3000 ft
1500m to 5 km
500 to 1000 ft
800 to 1500m
200 to 500 ft
< 800m
< 200 ft
Symbols :   Thunderstorms  Fog  Heavy snow  Heavy precipitations  Wind > 20 kt






- Airport Elevation : 4308 ft


KWMC - Winnemucca Municipal

CURRENT METAR :
  • 250556Z AUTO 26010KT 10SM CLR 24/M08 A3001 RMK AO2 SLP102 T02391078 10361 20228 51014

EXPIRED METARs :
  • 250456Z AUTO 28009KT 10SM CLR 23/M07 A3000 RMK AO2 SLP101 T02331072
  • 250356Z AUTO 25009KT 10SM CLR 25/M06 A2997 RMK AO2 SLP094 T02501061
  • 250256Z AUTO 28012KT 10SM CLR 31/M05 A2996 RMK AO2 SLP087 T03111050 53002
  • 250156Z AUTO 28014KT 10SM CLR 34/M03 A2994 RMK AO2 SLP083 T03441033

TAF KWMC
Valid from the 25 at 06:00 until the 26 at 06:00 UTC


250520Z 2506/2606 26008KT P6SM SKC
FM250900 18005KT P6SM FEW120 SCT250
FM252000 25010G20KT P6SM VCTS SCT120CB BKN250
FM260200 26008KT P6SM SCT120 BKN250
KZLC FIR / North America



MET'MAP, your aeronautical weather chart ! - Copyright ORBIFLY December 2007 - Disclaimer

ORBIFLY MET'MAP TEAM :

Programming & Development : Alexandra Zaïnal
Original concept : Baudouin d'Aumeries
Technical & hardware support : Manuel Goepfert
Assistance : Marc-Olivier Méhu




SOURCES & CREDITS :

   NOAA       Earth
Advisory